Time;durP1;ratioP1;P1;durP2;ratioP2;P2;SDS_P1;SDS_P2;PMS_P1;PMS_P2;Temp;Humidity;BMP_temperature;BMP_pressure;BME280_temperature;BME280_humidity;BME280_pressure;Samples;Min_cycle;Max_cycle;Signal;HPM_P1;HPM_P2
2023/08/09 00:00:50;;;;;;;0.82;0.82;;;20.80;71.10;;;;;;4978758;28;20213;-70
2023/08/09 00:03:16;;;;;;;1.10;1.00;;;20.80;71.10;;;;;;5009149;28;20192;-70
2023/08/09 00:05:41;;;;;;;1.52;0.90;;;20.80;71.20;;;;;;4986010;28;20196;-71
2023/08/09 00:08:07;;;;;;;1.02;1.00;;;20.80;71.10;;;;;;4993531;28;20228;-71
2023/08/09 00:10:34;;;;;;;1.00;1.00;;;20.80;71.10;;;;;;5005288;28;20194;-69
2023/08/09 00:13:01;;;;;;;1.15;1.05;;;20.80;71.20;;;;;;4981189;28;20205;-70
2023/08/09 00:15:27;;;;;;;1.15;1.10;;;20.80;71.20;;;;;;4977676;28;20185;-69
2023/08/09 00:17:53;;;;;;;1.08;1.00;;;20.80;71.20;;;;;;4992833;28;20214;-69
2023/08/09 00:20:22;;;;;;;1.30;1.20;;;20.80;71.20;;;;;;4994407;28;20228;-70
2023/08/09 00:22:48;;;;;;;0.95;0.90;;;20.80;71.20;;;;;;5000417;28;20195;-69
2023/08/09 00:25:15;;;;;;;1.15;1.10;;;20.80;71.30;;;;;;4988964;28;20200;-70
2023/08/09 00:27:42;;;;;;;0.85;0.85;;;20.80;71.30;;;;;;4972689;28;20207;-70
2023/08/09 00:30:12;;;;;;;1.17;1.10;;;20.80;71.30;;;;;;4996660;28;20243;-70
2023/08/09 00:32:39;;;;;;;0.90;0.90;;;20.80;71.30;;;;;;4991880;28;20200;-70
2023/08/09 00:35:06;;;;;;;1.38;1.05;;;20.80;71.20;;;;;;4969844;28;20694;-69
2023/08/09 00:37:32;;;;;;;0.90;0.90;;;20.80;71.20;;;;;;5008484;28;20221;-71
2023/08/09 00:40:00;;;;;;;1.20;1.10;;;20.80;71.30;;;;;;4984928;28;20222;-70
2023/08/09 00:42:26;;;;;;;0.98;0.98;;;20.80;71.30;;;;;;4972065;28;20187;-70
2023/08/09 00:44:52;;;;;;;1.05;1.00;;;20.80;71.30;;;;;;5004522;28;20562;-70
2023/08/09 00:47:20;;;;;;;1.00;1.00;;;20.70;71.20;;;;;;4994013;28;20648;-69
2023/08/09 00:49:46;;;;;;;1.23;1.15;;;20.70;71.20;;;;;;4977311;28;20288;-70
2023/08/09 00:52:12;;;;;;;0.85;0.85;;;20.80;71.30;;;;;;5001222;28;20276;-70
2023/08/09 00:54:39;;;;;;;1.10;1.00;;;20.80;71.30;;;;;;5001466;28;20195;-70
2023/08/09 00:57:07;;;;;;;1.02;1.02;;;20.80;71.30;;;;;;4984711;28;20192;-70
2023/08/09 00:59:33;;;;;;;0.90;0.90;;;20.80;71.30;;;;;;4981506;28;20200;-69
2023/08/09 01:01:59;;;;;;;1.05;1.00;;;20.70;71.30;;;;;;5012518;28;20198;-70
2023/08/09 01:04:26;;;;;;;0.95;0.95;;;20.80;71.30;;;;;;4976769;28;20193;-69
2023/08/09 01:07:42;;;;;;;0.90;0.90;;;20.80;71.30;;;;;;4984981;28;20190;-70
2023/08/09 01:10:20;;;;;;;1.10;1.00;;;20.80;71.30;;;;;;4992915;28;20199;-70
2023/08/09 01:13:03;;;;;;;0.90;0.90;;;20.70;71.30;;;;;;4996060;28;20187;-69
2023/08/09 01:15:33;;;;;;;1.63;1.00;;;20.80;71.40;;;;;;4988438;28;20188;-70
2023/08/09 01:18:00;;;;;;;1.10;1.10;;;20.70;71.30;;;;;;4971872;28;20208;-70
2023/08/09 01:20:28;;;;;;;1.00;1.00;;;20.70;71.30;;;;;;5012039;28;20306;-70
2023/08/09 01:23:02;;;;;;;0.95;0.90;;;20.70;71.30;;;;;;4970711;28;20580;-70
2023/08/09 01:25:32;;;;;;;1.20;1.10;;;20.80;71.40;;;;;;4987931;28;20187;-70
2023/08/09 01:27:59;;;;;;;1.05;0.90;;;20.70;71.30;;;;;;5012302;28;20407;-70
2023/08/09 01:30:25;;;;;;;1.10;1.10;;;20.70;71.30;;;;;;4984541;28;20224;-70
2023/08/09 01:32:53;;;;;;;0.90;0.90;;;20.70;71.30;;;;;;4992622;28;20574;-70
2023/08/09 01:35:19;;;;;;;0.77;0.70;;;20.70;71.30;;;;;;5008685;28;20188;-69
2023/08/09 01:37:48;;;;;;;0.90;0.90;;;20.70;71.30;;;;;;4973813;28;20299;-70
2023/08/09 01:40:18;;;;;;;0.90;0.90;;;20.70;71.30;;;;;;4982212;28;20270;-70
2023/08/09 01:42:45;;;;;;;0.80;0.80;;;20.70;71.30;;;;;;5005901;28;20280;-70
2023/08/09 01:45:13;;;;;;;0.82;0.82;;;20.70;71.30;;;;;;4968339;28;20220;-69
2023/08/09 01:47:41;;;;;;;0.93;0.93;;;20.70;71.30;;;;;;4976076;28;20299;-70
2023/08/09 01:50:21;;;;;;;0.98;0.98;;;20.70;71.30;;;;;;4992957;28;20189;-70
2023/08/09 01:52:47;;;;;;;1.17;1.10;;;20.70;71.30;;;;;;4979376;28;20203;-69
2023/08/09 01:55:19;;;;;;;1.00;1.00;;;20.70;71.30;;;;;;4994219;28;20214;-70
2023/08/09 01:57:47;;;;;;;1.08;0.98;;;20.70;71.30;;;;;;4981316;28;20208;-71
2023/08/09 02:00:19;;;;;;;1.20;1.10;;;20.70;71.30;;;;;;4985764;28;20212;-70
2023/08/09 02:02:51;;;;;;;0.93;0.93;;;20.70;71.30;;;;;;4976138;28;20192;-69
2023/08/09 02:05:18;;;;;;;0.90;0.90;;;20.70;71.30;;;;;;4969539;28;20185;-70
2023/08/09 02:07:44;;;;;;;0.90;0.90;;;20.70;71.30;;;;;;4978729;28;20216;-70
2023/08/09 02:10:11;;;;;;;1.10;1.10;;;20.70;71.30;;;;;;4986110;28;20680;-71
2023/08/09 02:12:38;;;;;;;1.10;0.98;;;20.70;71.30;;;;;;4988121;28;20207;-70
2023/08/09 02:15:05;;;;;;;0.88;0.88;;;20.70;71.30;;;;;;5011390;28;20203;-69
2023/08/09 02:17:31;;;;;;;0.80;0.80;;;20.70;71.40;;;;;;4978474;28;20238;-70
2023/08/09 02:19:58;;;;;;;0.90;0.90;;;20.70;71.30;;;;;;4978702;28;20218;-70
2023/08/09 02:22:25;;;;;;;0.90;0.90;;;20.70;71.30;;;;;;4984243;28;20199;-71
2023/08/09 02:24:54;;;;;;;0.90;0.90;;;20.70;71.30;;;;;;4983209;28;20200;-70
2023/08/09 02:27:19;;;;;;;0.80;0.80;;;20.70;71.30;;;;;;4967221;28;20184;-70
2023/08/09 02:29:46;;;;;;;0.90;0.90;;;20.70;71.30;;;;;;5005515;28;20655;-70
2023/08/09 02:32:12;;;;;;;1.05;1.05;;;20.70;71.40;;;;;;5007643;28;20203;-69
2023/08/09 02:34:37;;;;;;;0.80;0.80;;;20.70;71.30;;;;;;4991592;28;20185;-70
2023/08/09 02:37:04;;;;;;;1.10;1.00;;;20.70;71.40;;;;;;4975090;28;20191;-70
2023/08/09 02:39:31;;;;;;;0.80;0.80;;;20.70;71.40;;;;;;4994270;28;20318;-69
2023/08/09 02:41:58;;;;;;;0.90;0.90;;;20.70;71.40;;;;;;4994646;28;20220;-70
2023/08/09 02:44:25;;;;;;;0.90;0.90;;;20.70;71.40;;;;;;4977627;28;20189;-70
2023/08/09 02:46:51;;;;;;;0.90;0.90;;;20.70;71.40;;;;;;4994470;28;20196;-70
2023/08/09 02:49:16;;;;;;;1.00;1.00;;;20.70;71.40;;;;;;5002592;28;20269;-70
2023/08/09 02:51:44;;;;;;;1.00;1.00;;;20.70;71.40;;;;;;4995100;28;20199;-70
2023/08/09 02:54:10;;;;;;;0.70;0.68;;;20.70;71.40;;;;;;4985997;28;20676;-71
2023/08/09 02:56:36;;;;;;;0.80;0.80;;;20.70;71.40;;;;;;4975541;28;20215;-69
2023/08/09 02:59:02;;;;;;;1.00;0.90;;;20.70;71.40;;;;;;4982274;28;20211;-70
2023/08/09 03:01:29;;;;;;;0.60;0.60;;;20.70;71.50;;;;;;4970611;28;20292;-70
2023/08/09 03:03:55;;;;;;;1.08;1.00;;;20.70;71.50;;;;;;4970329;28;20196;-70
2023/08/09 03:06:22;;;;;;;0.90;0.90;;;20.70;71.50;;;;;;4978186;28;20212;-69
2023/08/09 03:08:52;;;;;;;0.80;0.80;;;20.70;71.50;;;;;;4979734;28;20258;-70
2023/08/09 03:11:23;;;;;;;1.10;1.00;;;20.70;71.50;;;;;;4960816;28;20195;-70
2023/08/09 03:13:51;;;;;;;0.90;0.90;;;20.70;71.50;;;;;;4999241;28;20189;-70
2023/08/09 03:16:18;;;;;;;0.90;0.90;;;20.70;71.50;;;;;;4992215;28;20699;-70
2023/08/09 03:18:44;;;;;;;0.90;0.90;;;20.70;71.50;;;;;;4994021;28;20212;-69
2023/08/09 03:21:10;;;;;;;0.77;0.77;;;20.70;71.50;;;;;;4995097;28;20590;-70
2023/08/09 03:23:36;;;;;;;1.00;1.00;;;20.70;71.50;;;;;;4970733;28;20192;-70
2023/08/09 03:26:03;;;;;;;1.02;0.93;;;20.70;71.50;;;;;;4986481;28;20184;-71
2023/08/09 03:28:31;;;;;;;0.90;0.90;;;20.70;71.50;;;;;;4986095;28;20235;-69
2023/08/09 03:30:57;;;;;;;0.80;0.80;;;20.70;71.50;;;;;;4978292;28;20245;-70
2023/08/09 03:33:28;;;;;;;0.93;0.93;;;20.70;71.50;;;;;;4975758;28;20189;-70
2023/08/09 03:35:54;;;;;;;0.90;0.90;;;20.70;71.50;;;;;;4959105;28;20193;-70
2023/08/09 03:38:20;;;;;;;1.10;1.00;;;20.70;71.60;;;;;;4982379;28;20212;-70
2023/08/09 03:40:46;;;;;;;0.90;0.90;;;20.70;71.50;;;;;;4979149;28;20262;-70
2023/08/09 03:43:11;;;;;;;0.80;0.80;;;20.70;71.60;;;;;;4993417;28;20187;-70
2023/08/09 03:45:37;;;;;;;1.10;1.00;;;20.70;71.50;;;;;;4997055;28;20184;-71
2023/08/09 03:48:04;;;;;;;0.93;0.93;;;20.70;71.60;;;;;;4966050;28;20211;-70
2023/08/09 03:50:30;;;;;;;0.98;0.98;;;20.70;71.60;;;;;;4994730;28;20281;-70
2023/08/09 03:52:56;;;;;;;1.02;1.02;;;20.70;71.60;;;;;;4984822;28;20196;-70
2023/08/09 03:55:23;;;;;;;0.80;0.80;;;20.70;71.60;;;;;;4995644;28;20706;-70
2023/08/09 03:57:48;;;;;;;0.90;0.90;;;20.70;71.60;;;;;;4991419;28;20220;-69
2023/08/09 04:00:18;;;;;;;0.93;0.93;;;20.70;71.60;;;;;;5013022;28;20219;-70
2023/08/09 04:02:45;;;;;;;0.90;0.90;;;20.70;71.60;;;;;;4978607;28;20738;-70
2023/08/09 04:05:12;;;;;;;0.80;0.80;;;20.70;71.60;;;;;;4971328;28;20184;-70
2023/08/09 04:07:38;;;;;;;0.85;0.85;;;20.70;71.60;;;;;;4993663;28;20247;-70
2023/08/09 04:10:06;;;;;;;0.90;0.90;;;20.70;71.70;;;;;;4993424;28;20199;-70
2023/08/09 04:12:34;;;;;;;0.90;0.90;;;20.70;71.60;;;;;;5006706;28;20191;-70
2023/08/09 04:15:00;;;;;;;0.85;0.85;;;20.70;71.70;;;;;;4997651;28;20227;-69
2023/08/09 04:17:26;;;;;;;1.30;1.02;;;20.70;71.70;;;;;;4970530;28;20197;-70
2023/08/09 04:19:52;;;;;;;1.00;1.00;;;20.70;71.70;;;;;;4967333;28;20589;-70
2023/08/09 04:22:18;;;;;;;0.80;0.80;;;20.60;71.50;;;;;;4995990;28;20195;-70
2023/08/09 04:24:44;;;;;;;0.60;0.60;;;20.70;71.70;;;;;;4993954;28;20188;-70
2023/08/09 04:27:11;;;;;;;2.22;0.90;;;20.70;71.70;;;;;;4969674;28;20192;-70
2023/08/09 04:29:37;;;;;;;1.20;1.10;;;20.70;71.70;;;;;;4973227;28;20211;-71
2023/08/09 04:32:03;;;;;;;0.90;0.90;;;20.70;71.80;;;;;;5003695;28;20220;-70
2023/08/09 04:34:29;;;;;;;0.95;0.95;;;20.60;71.60;;;;;;5004294;28;20231;-70
2023/08/09 04:36:54;;;;;;;0.70;0.70;;;20.60;71.60;;;;;;4972404;28;20223;-71
2023/08/09 04:39:20;;;;;;;0.80;0.80;;;20.60;71.60;;;;;;5012397;28;20207;-70
2023/08/09 04:41:46;;;;;;;0.85;0.85;;;20.60;71.60;;;;;;4988751;28;20223;-70
2023/08/09 04:44:12;;;;;;;0.80;0.80;;;20.60;71.60;;;;;;5005218;28;20188;-70
2023/08/09 04:46:37;;;;;;;0.90;0.90;;;20.70;71.70;;;;;;4985310;28;20231;-70
2023/08/09 04:49:03;;;;;;;0.90;0.90;;;20.70;72.50;;;;;;4968038;28;20212;-70
2023/08/09 04:51:29;;;;;;;0.90;0.90;;;20.60;71.50;;;;;;4970696;28;20688;-70
2023/08/09 04:53:55;;;;;;;0.80;0.80;;;20.60;71.50;;;;;;5012869;28;20188;-70
2023/08/09 04:56:21;;;;;;;1.00;1.00;;;20.60;71.50;;;;;;4978851;28;20192;-70
2023/08/09 04:58:47;;;;;;;0.80;0.80;;;20.60;71.60;;;;;;4997621;28;20248;-69
2023/08/09 05:01:13;;;;;;;0.75;0.75;;;20.60;71.60;;;;;;5009246;28;20248;-72
2023/08/09 05:03:38;;;;;;;0.80;0.80;;;20.60;71.60;;;;;;5013898;28;20184;-70
2023/08/09 05:06:04;;;;;;;0.63;0.63;;;20.60;71.60;;;;;;4980496;28;20195;-69
2023/08/09 05:08:30;;;;;;;0.95;0.95;;;20.60;71.60;;;;;;4984614;28;20239;-70
2023/08/09 05:10:56;;;;;;;0.80;0.80;;;20.60;71.60;;;;;;4990586;28;20261;-70
2023/08/09 05:13:21;;;;;;;0.90;0.90;;;20.70;71.80;;;;;;4996141;28;20215;-70
2023/08/09 05:15:47;;;;;;;0.80;0.80;;;20.70;71.70;;;;;;5009155;28;20638;-70
2023/08/09 05:18:13;;;;;;;1.02;1.00;;;20.60;71.50;;;;;;5000894;28;20220;-70
2023/08/09 05:20:39;;;;;;;1.00;1.00;;;20.60;71.60;;;;;;5009994;28;20217;-71
2023/08/09 05:23:04;;;;;;;0.95;0.95;;;20.70;71.70;;;;;;4984763;28;20192;-70
2023/08/09 05:25:30;;;;;;;0.90;0.90;;;20.60;71.60;;;;;;4984447;28;20184;-69
2023/08/09 05:27:56;;;;;;;1.00;1.00;;;20.60;72.40;;;;;;5005975;28;20204;-69
2023/08/09 05:30:22;;;;;;;0.80;0.80;;;20.60;71.70;;;;;;4996161;28;20203;-70
2023/08/09 05:32:48;;;;;;;0.80;0.80;;;20.60;71.60;;;;;;5000773;28;20208;-69
2023/08/09 05:35:14;;;;;;;0.90;0.90;;;20.60;71.60;;;;;;4992574;28;20201;-70
2023/08/09 05:37:40;;;;;;;0.90;0.90;;;20.60;71.60;;;;;;4984037;28;20213;-70
2023/08/09 05:40:09;;;;;;;0.70;0.70;;;20.60;71.70;;;;;;4993105;28;20212;-70
2023/08/09 05:42:36;;;;;;;0.90;0.90;;;20.70;71.80;;;;;;4986703;28;20188;-69
2023/08/09 05:45:03;;;;;;;0.82;0.82;;;20.60;71.70;;;;;;4995642;28;20258;-70
2023/08/09 05:47:29;;;;;;;1.05;1.05;;;20.60;71.70;;;;;;4969493;28;20188;-69
2023/08/09 05:49:55;;;;;;;0.80;0.80;;;20.60;71.70;;;;;;4981147;28;20622;-70
2023/08/09 05:52:21;;;;;;;1.00;1.00;;;20.60;71.70;;;;;;5003010;28;20212;-70
2023/08/09 05:54:48;;;;;;;0.70;0.70;;;20.60;71.70;;;;;;4984803;28;20196;-69
2023/08/09 05:57:13;;;;;;;0.80;0.80;;;20.60;71.70;;;;;;4967344;28;20206;-70
2023/08/09 05:59:39;;;;;;;0.85;0.85;;;20.70;71.90;;;;;;5000642;28;20218;-70
2023/08/09 06:02:06;;;;;;;1.63;0.85;;;20.60;71.70;;;;;;4990366;28;20227;-70
2023/08/09 06:04:33;;;;;;;0.90;0.90;;;20.60;71.70;;;;;;4985364;28;20201;-70
2023/08/09 06:06:59;;;;;;;0.80;0.80;;;20.60;71.70;;;;;;4989024;28;20187;-70
2023/08/09 06:09:25;;;;;;;0.95;0.95;;;20.60;71.80;;;;;;4994495;28;20216;-70
2023/08/09 06:11:51;;;;;;;1.00;1.00;;;20.60;71.80;;;;;;5007324;28;20266;-69
2023/08/09 06:14:17;;;;;;;1.10;1.00;;;20.60;71.80;;;;;;4983592;28;20196;-70
2023/08/09 06:16:45;;;;;;;1.00;1.00;;;20.60;71.80;;;;;;4986377;28;20233;-70
2023/08/09 06:19:12;;;;;;;0.90;0.90;;;20.60;71.80;;;;;;5003089;28;20271;-70
2023/08/09 06:21:38;;;;;;;1.02;0.93;;;20.60;71.80;;;;;;4976447;28;20219;-70
2023/08/09 06:24:05;;;;;;;0.60;0.60;;;20.60;71.80;;;;;;4975573;28;20571;-69
2023/08/09 06:26:32;;;;;;;0.70;0.70;;;20.60;71.80;;;;;;5000068;28;20247;-69
2023/08/09 06:29:00;;;;;;;0.98;0.98;;;20.60;71.80;;;;;;4980113;28;20212;-70
2023/08/09 06:31:26;;;;;;;1.00;0.90;;;20.60;71.80;;;;;;5011185;28;20200;-70
2023/08/09 06:33:53;;;;;;;0.80;0.80;;;20.60;71.80;;;;;;5011165;28;20191;-70
2023/08/09 06:36:19;;;;;;;0.88;0.88;;;20.60;71.90;;;;;;5004495;28;20193;-70
2023/08/09 06:38:45;;;;;;;1.05;1.05;;;20.60;71.90;;;;;;4983050;28;20223;-69
2023/08/09 06:41:11;;;;;;;0.90;0.90;;;20.60;71.90;;;;;;4976162;28;20329;-70
2023/08/09 06:43:37;;;;;;;0.80;0.80;;;20.60;71.80;;;;;;4992675;28;20601;-70
2023/08/09 06:46:03;;;;;;;1.00;1.00;;;20.60;71.90;;;;;;4975252;28;20197;-70
2023/08/09 06:48:31;;;;;;;1.00;1.00;;;20.60;71.90;;;;;;4975769;28;20266;-69
2023/08/09 06:50:59;;;;;;;1.05;0.90;;;20.60;71.90;;;;;;4978260;28;20202;-70
2023/08/09 06:53:26;;;;;;;0.82;0.82;;;20.60;71.90;;;;;;5003577;28;20187;-70
2023/08/09 06:55:52;;;;;;;0.80;0.80;;;20.60;71.90;;;;;;4995102;28;20194;-70
2023/08/09 06:58:18;;;;;;;1.00;1.00;;;20.60;71.90;;;;;;5003655;28;20230;-70
2023/08/09 07:00:46;;;;;;;0.80;0.80;;;20.60;71.90;;;;;;4983423;28;20225;-70
2023/08/09 07:03:12;;;;;;;0.93;0.90;;;20.60;71.80;;;;;;4967243;28;20189;-70
2023/08/09 07:05:38;;;;;;;0.90;0.90;;;20.60;71.90;;;;;;4985977;28;20198;-69
2023/08/09 07:08:05;;;;;;;1.10;1.10;;;20.60;71.90;;;;;;5005147;28;20240;-70
2023/08/09 07:10:31;;;;;;;0.80;0.80;;;20.60;71.90;;;;;;4973222;28;20193;-70
2023/08/09 07:12:56;;;;;;;0.90;0.90;;;20.60;71.90;;;;;;4966238;28;20193;-70
2023/08/09 07:15:22;;;;;;;0.93;0.93;;;20.60;71.90;;;;;;4982856;28;20197;-70
2023/08/09 07:17:48;;;;;;;1.13;1.02;;;20.60;71.90;;;;;;4977694;28;20204;-70
2023/08/09 07:20:14;;;;;;;0.90;0.90;;;20.60;71.90;;;;;;4997576;28;20238;-69
2023/08/09 07:22:41;;;;;;;0.90;0.90;;;20.60;71.90;;;;;;4998494;28;20180;-70
2023/08/09 07:25:09;;;;;;;1.10;1.00;;;20.60;72.00;;;;;;4990434;28;20176;-70
2023/08/09 07:27:47;;;;;;;1.05;1.00;;;20.60;72.00;;;;;;4973769;28;20287;-70
2023/08/09 07:30:16;;;;;;;0.90;0.90;;;20.60;72.00;;;;;;4983697;28;20616;-70
2023/08/09 07:32:42;;;;;;;0.80;0.80;;;20.60;71.90;;;;;;4994742;28;20188;-70
2023/08/09 07:35:10;;;;;;;0.88;0.88;;;20.60;71.90;;;;;;4992338;28;20278;-70
2023/08/09 07:37:40;;;;;;;0.98;0.98;;;20.60;71.90;;;;;;5005799;28;20234;-69
2023/08/09 07:40:07;;;;;;;0.88;0.88;;;20.60;72.00;;;;;;5013872;28;20298;-70
2023/08/09 07:42:35;;;;;;;0.82;0.80;;;20.60;72.00;;;;;;4989270;28;20177;-69
2023/08/09 07:45:03;;;;;;;0.80;0.80;;;20.60;72.00;;;;;;4995811;28;20642;-70
2023/08/09 07:47:29;;;;;;;0.75;0.75;;;20.60;72.00;;;;;;4990913;28;20216;-70
2023/08/09 07:49:55;;;;;;;1.10;0.95;;;20.60;72.00;;;;;;4989888;28;20652;-70
2023/08/09 07:52:21;;;;;;;0.80;0.70;;;20.60;71.90;;;;;;5013981;28;20180;-70
2023/08/09 07:54:47;;;;;;;0.80;0.80;;;20.60;71.90;;;;;;4979190;28;20196;-70
2023/08/09 07:57:12;;;;;;;0.80;0.80;;;20.60;72.00;;;;;;4995724;28;20192;-69
2023/08/09 07:59:38;;;;;;;0.90;0.90;;;20.60;71.90;;;;;;4994064;28;20211;-69
2023/08/09 08:02:04;;;;;;;0.73;0.73;;;20.60;72.00;;;;;;4998754;28;20208;-70
2023/08/09 08:04:30;;;;;;;0.70;0.70;;;20.60;72.00;;;;;;4981542;28;20180;-69
2023/08/09 08:06:56;;;;;;;0.80;0.80;;;20.60;71.90;;;;;;4953613;28;20193;-69
2023/08/09 08:09:24;;;;;;;0.90;0.90;;;20.60;72.00;;;;;;5010494;28;20210;-69
2023/08/09 08:11:50;;;;;;;0.90;0.90;;;20.60;71.90;;;;;;5011286;28;20242;-69
2023/08/09 08:14:16;;;;;;;0.77;0.77;;;20.60;72.00;;;;;;5002409;28;20228;-69
2023/08/09 08:16:42;;;;;;;0.65;0.65;;;20.60;71.90;;;;;;4977549;28;20231;-71
2023/08/09 08:19:09;;;;;;;0.70;0.70;;;20.60;71.90;;;;;;4971211;28;20299;-69
2023/08/09 08:21:35;;;;;;;0.90;0.90;;;20.70;72.00;;;;;;4988780;28;20213;-69
2023/08/09 08:24:01;;;;;;;0.90;0.90;;;20.60;71.90;;;;;;4977623;28;20196;-70
2023/08/09 08:26:27;;;;;;;0.70;0.70;;;20.60;71.90;;;;;;4993452;28;20188;-69
2023/08/09 08:28:53;;;;;;;1.05;0.80;;;20.70;72.00;;;;;;4993720;28;20209;-70
2023/08/09 08:31:22;;;;;;;0.80;0.80;;;20.70;72.00;;;;;;4967232;28;20296;-70
2023/08/09 08:33:49;;;;;;;0.80;0.80;;;20.70;72.00;;;;;;4987080;28;20251;-70
2023/08/09 08:36:16;;;;;;;0.90;0.90;;;20.60;71.90;;;;;;4999643;28;20203;-70
2023/08/09 08:38:43;;;;;;;0.95;0.95;;;20.60;71.90;;;;;;5006016;28;20686;-70
2023/08/09 08:41:10;;;;;;;1.10;0.90;;;20.70;72.00;;;;;;4998036;28;20212;-69
2023/08/09 08:43:37;;;;;;;0.70;0.70;;;20.70;72.00;;;;;;4971960;28;20279;-70
2023/08/09 08:46:04;;;;;;;0.70;0.70;;;20.70;72.00;;;;;;4989458;28;20287;-69
2023/08/09 08:48:33;;;;;;;0.98;0.90;;;20.70;72.00;;;;;;4964898;28;20208;-69
2023/08/09 08:51:04;;;;;;;0.80;0.80;;;20.70;72.00;;;;;;4977173;28;20192;-71
2023/08/09 08:53:31;;;;;;;0.98;0.95;;;20.70;72.00;;;;;;4984496;28;20187;-69
2023/08/09 08:55:58;;;;;;;0.85;0.85;;;20.70;71.90;;;;;;4988125;28;20259;-69
2023/08/09 08:58:23;;;;;;;0.90;0.90;;;20.70;71.90;;;;;;4968700;28;20205;-69
2023/08/09 09:00:49;;;;;;;0.80;0.80;;;20.70;71.90;;;;;;4978576;28;20204;-70
2023/08/09 09:03:15;;;;;;;0.77;0.77;;;20.70;71.90;;;;;;4976676;28;20196;-69
2023/08/09 09:05:41;;;;;;;0.80;0.80;;;20.70;71.80;;;;;;4974943;28;20197;-70
2023/08/09 09:08:06;;;;;;;0.90;0.90;;;20.80;71.80;;;;;;4979974;28;20205;-69
2023/08/09 09:10:32;;;;;;;0.80;0.80;;;20.80;71.80;;;;;;4972794;28;20196;-70
2023/08/09 09:12:58;;;;;;;1.08;1.00;;;20.80;71.70;;;;;;4976581;28;20283;-69
2023/08/09 09:15:27;;;;;;;0.82;0.82;;;20.80;71.70;;;;;;4983641;28;20672;-70
2023/08/09 09:17:53;;;;;;;0.90;0.90;;;20.80;71.80;;;;;;4995820;28;20223;-69
2023/08/09 09:20:29;;;;;;;0.95;0.95;;;20.80;71.80;;;;;;5007641;28;20212;-69
2023/08/09 09:22:56;;;;;;;0.80;0.80;;;20.80;71.70;;;;;;5003406;28;20199;-69
2023/08/09 09:25:23;;;;;;;0.98;0.98;;;20.80;71.70;;;;;;4998214;28;20185;-69
2023/08/09 09:27:54;;;;;;;0.70;0.70;;;20.80;71.70;;;;;;5011276;28;20292;-69
2023/08/09 09:30:24;;;;;;;1.13;0.98;;;20.80;71.80;;;;;;4979965;28;20219;-70
2023/08/09 09:32:52;;;;;;;0.75;0.75;;;20.90;71.80;;;;;;4979620;28;20195;-69
2023/08/09 09:35:19;;;;;;;0.90;0.90;;;20.80;71.70;;;;;;4990898;28;20240;-70
2023/08/09 09:37:53;;;;;;;0.93;0.75;;;20.80;71.70;;;;;;5008454;28;20204;-69
2023/08/09 09:40:34;;;;;;;0.85;0.80;;;20.80;71.70;;;;;;4981127;28;20294;-70
2023/08/09 09:43:07;;;;;;;0.80;0.80;;;20.80;71.70;;;;;;5000356;28;20199;-69
2023/08/09 09:45:36;;;;;;;0.88;0.80;;;20.80;71.70;;;;;;5007865;28;20263;-69
2023/08/09 09:48:02;;;;;;;0.85;0.85;;;20.80;71.80;;;;;;4978913;28;20258;-69
2023/08/09 09:50:31;;;;;;;0.70;0.70;;;20.80;71.80;;;;;;4979323;28;20192;-69
2023/08/09 09:52:57;;;;;;;0.98;0.90;;;20.90;71.80;;;;;;4979164;28;20200;-69
2023/08/09 09:55:26;;;;;;;1.00;1.00;;;20.80;71.80;;;;;;4979462;28;20246;-69
2023/08/09 09:57:53;;;;;;;0.80;0.80;;;20.90;71.80;;;;;;4987120;28;20215;-70
2023/08/09 10:00:26;;;;;;;0.70;0.70;;;20.90;71.80;;;;;;4995102;28;20212;-69
2023/08/09 10:02:54;;;;;;;1.30;1.20;;;20.90;71.80;;;;;;5011466;28;20188;-69
2023/08/09 10:05:44;;;;;;;0.90;0.90;;;20.90;71.80;;;;;;4979228;28;20176;-69
2023/08/09 10:08:13;;;;;;;0.85;0.85;;;20.90;71.70;;;;;;4983768;28;20209;-70
2023/08/09 10:10:42;;;;;;;0.93;0.93;;;20.90;71.80;;;;;;4992060;28;20263;-69
2023/08/09 10:13:09;;;;;;;0.90;0.90;;;20.90;71.80;;;;;;4995760;28;20195;-69
2023/08/09 10:15:44;;;;;;;1.17;1.10;;;20.90;71.70;;;;;;4971164;28;20192;-69
2023/08/09 10:18:29;;;;;;;0.90;0.90;;;20.90;71.80;;;;;;4987418;28;20218;-69
2023/08/09 10:20:59;;;;;;;1.02;1.00;;;20.90;71.70;;;;;;4993216;28;20216;-71
2023/08/09 10:23:29;;;;;;;1.08;0.90;;;20.90;71.80;;;;;;4999839;28;20196;-69
2023/08/09 10:25:56;;;;;;;1.13;1.00;;;20.90;71.70;;;;;;4983766;28;20188;-69
2023/08/09 10:28:47;;;;;;;0.70;0.70;;;20.90;71.70;;;;;;4996810;28;20234;-70
2023/08/09 10:31:14;;;;;;;0.70;0.70;;;21.00;71.80;;;;;;4983612;28;20189;-69
2023/08/09 10:34:08;;;;;;;0.80;0.80;;;20.90;71.70;;;;;;4991534;28;20185;-69
2023/08/09 10:36:35;;;;;;;0.90;0.90;;;21.00;71.70;;;;;;4975190;28;20255;-70
2023/08/09 10:39:20;;;;;;;0.90;0.90;;;21.00;71.70;;;;;;4993484;28;20307;-70
2023/08/09 10:41:59;;;;;;;0.85;0.85;;;21.00;71.70;;;;;;4990208;28;20251;-69
2023/08/09 10:44:48;;;;;;;0.80;0.80;;;21.00;71.70;;;;;;4988697;28;20198;-70
2023/08/09 10:47:25;;;;;;;0.80;0.80;;;21.00;71.80;;;;;;4966273;28;20189;-69
2023/08/09 10:49:51;;;;;;;1.35;1.05;;;21.00;71.80;;;;;;4976006;28;20239;-69
2023/08/09 10:52:19;;;;;;;0.80;0.70;;;21.00;71.80;;;;;;4978461;28;20192;-70
2023/08/09 10:54:48;;;;;;;1.23;1.00;;;20.90;71.70;;;;;;4994361;28;20192;-69
2023/08/09 10:57:16;;;;;;;0.90;0.90;;;21.00;71.80;;;;;;5006849;28;20679;-70
2023/08/09 10:59:46;;;;;;;0.88;0.88;;;21.00;71.80;;;;;;4981613;28;20273;-69
2023/08/09 11:02:16;;;;;;;0.90;0.90;;;20.90;71.70;;;;;;4994530;28;20215;-69
2023/08/09 11:04:43;;;;;;;0.93;0.93;;;21.00;71.80;;;;;;5003774;28;20184;-70
2023/08/09 11:07:19;;;;;;;0.90;0.90;;;21.00;71.80;;;;;;4994409;28;20184;-69
2023/08/09 11:09:45;;;;;;;0.82;0.82;;;21.00;71.80;;;;;;4978092;28;20220;-69
2023/08/09 11:12:14;;;;;;;0.90;0.90;;;21.00;71.80;;;;;;4996302;28;20193;-70
2023/08/09 11:14:40;;;;;;;0.90;0.90;;;21.00;71.80;;;;;;5006626;28;20294;-69
2023/08/09 11:17:13;;;;;;;0.70;0.70;;;21.00;71.90;;;;;;4991062;28;20263;-69
2023/08/09 11:19:38;;;;;;;0.95;0.95;;;21.00;71.80;;;;;;4975183;28;20213;-69
2023/08/09 11:22:04;;;;;;;0.90;0.90;;;21.00;71.80;;;;;;4993064;28;20215;-69
2023/08/09 11:24:30;;;;;;;0.80;0.80;;;21.00;71.80;;;;;;4980614;28;20191;-69
2023/08/09 11:26:58;;;;;;;0.60;0.60;;;21.00;71.80;;;;;;4999929;28;20188;-69
2023/08/09 11:29:27;;;;;;;0.95;0.95;;;21.00;71.70;;;;;;4981599;28;20236;-69
2023/08/09 11:31:57;;;;;;;0.90;0.90;;;21.00;71.80;;;;;;5007677;28;20219;-69
2023/08/09 11:34:24;;;;;;;0.90;0.90;;;21.00;71.70;;;;;;5002652;28;20191;-69
2023/08/09 11:36:54;;;;;;;0.90;0.90;;;21.00;71.70;;;;;;4969610;28;20251;-69
2023/08/09 11:39:24;;;;;;;1.13;0.90;;;21.00;71.60;;;;;;4990393;28;20227;-71
2023/08/09 11:41:56;;;;;;;0.80;0.80;;;21.00;71.60;;;;;;4982848;28;20216;-70
2023/08/09 11:44:24;;;;;;;1.05;1.00;;;21.00;71.60;;;;;;4998996;28;20618;-70
2023/08/09 11:46:54;;;;;;;1.00;1.00;;;21.00;71.60;;;;;;4974531;28;20647;-69
2023/08/09 11:49:31;;;;;;;1.00;0.90;;;21.00;71.60;;;;;;5001979;28;20235;-70
2023/08/09 11:52:02;;;;;;;1.00;1.00;;;21.00;71.60;;;;;;4969758;28;20188;-69
2023/08/09 11:54:29;;;;;;;0.68;0.68;;;21.00;71.60;;;;;;5006608;28;20275;-69
2023/08/09 11:56:55;;;;;;;0.90;0.88;;;21.10;71.80;;;;;;4983060;28;20193;-70
2023/08/09 11:59:24;;;;;;;0.90;0.90;;;21.10;71.80;;;;;;5010510;28;20212;-69
2023/08/09 12:01:55;;;;;;;1.05;0.80;;;21.00;71.60;;;;;;4978290;28;20311;-69
2023/08/09 12:04:24;;;;;;;0.90;0.90;;;21.10;71.80;;;;;;4994571;28;20231;-69
2023/08/09 12:06:59;;;;;;;0.90;0.90;;;21.10;71.80;;;;;;4996032;28;20247;-69
2023/08/09 12:09:37;;;;;;;0.88;0.88;;;21.10;71.80;;;;;;4977163;28;20247;-69
2023/08/09 12:12:16;;;;;;;1.77;1.00;;;21.10;71.80;;;;;;5005212;28;20211;-69
2023/08/09 12:14:51;;;;;;;1.00;0.90;;;21.10;71.80;;;;;;4981278;28;20203;-69
2023/08/09 12:17:24;;;;;;;1.05;1.00;;;21.10;71.70;;;;;;4980664;28;20195;-70
2023/08/09 12:20:09;;;;;;;1.00;1.00;;;21.10;71.80;;;;;;4997370;28;20196;-69
2023/08/09 12:22:37;;;;;;;0.73;0.73;;;21.10;71.80;;;;;;4983450;28;20238;-69
2023/08/09 12:25:03;;;;;;;0.95;0.95;;;21.10;71.70;;;;;;4987906;28;20192;-69
2023/08/09 12:27:29;;;;;;;0.70;0.70;;;21.10;71.70;;;;;;4990198;28;20180;-69
2023/08/09 12:29:55;;;;;;;0.90;0.90;;;21.10;71.80;;;;;;5010467;28;20188;-70
2023/08/09 12:32:21;;;;;;;0.90;0.90;;;21.10;71.70;;;;;;5009955;28;20208;-70
2023/08/09 12:34:49;;;;;;;1.10;0.90;;;21.10;71.80;;;;;;5002028;28;20201;-69
2023/08/09 12:37:16;;;;;;;1.05;0.90;;;21.10;71.70;;;;;;4993313;28;20260;-70
2023/08/09 12:39:41;;;;;;;0.90;0.90;;;21.10;71.70;;;;;;4999695;28;20200;-69
2023/08/09 12:42:07;;;;;;;1.02;1.02;;;21.10;71.80;;;;;;4978945;28;20216;-69
2023/08/09 12:44:34;;;;;;;1.15;1.10;;;21.10;71.70;;;;;;5012377;28;20219;-69
2023/08/09 12:47:00;;;;;;;0.80;0.80;;;21.10;71.80;;;;;;5004103;28;20185;-68
2023/08/09 12:49:25;;;;;;;2.15;1.08;;;21.10;71.80;;;;;;5003899;28;20204;-69
2023/08/09 12:51:51;;;;;;;0.80;0.80;;;21.20;71.80;;;;;;4977251;28;20197;-69